sensor_id;sensor_type;location;lat;lon;timestamp;P1;durP1;ratioP1;P2;durP2;ratioP2
31652;SDS011;18261;53.648;9.910;2022-10-16T00:00:18;19.20;;;10.73;;
31652;SDS011;18261;53.648;9.910;2022-10-16T00:02:44;15.02;;;10.05;;
31652;SDS011;18261;53.648;9.910;2022-10-16T00:05:10;19.15;;;12.18;;
31652;SDS011;18261;53.648;9.910;2022-10-16T00:07:36;17.05;;;10.80;;
31652;SDS011;18261;53.648;9.910;2022-10-16T00:10:02;16.23;;;10.57;;
31652;SDS011;18261;53.648;9.910;2022-10-16T00:12:28;22.15;;;10.45;;
31652;SDS011;18261;53.648;9.910;2022-10-16T00:14:54;20.55;;;10.65;;
31652;SDS011;18261;53.648;9.910;2022-10-16T00:17:20;16.42;;;10.55;;
31652;SDS011;18261;53.648;9.910;2022-10-16T00:19:46;15.95;;;9.70;;
31652;SDS011;18261;53.648;9.910;2022-10-16T00:22:12;16.85;;;9.60;;
31652;SDS011;18261;53.648;9.910;2022-10-16T00:24:38;16.02;;;8.90;;
31652;SDS011;18261;53.648;9.910;2022-10-16T00:27:04;13.15;;;8.07;;
31652;SDS011;18261;53.648;9.910;2022-10-16T00:29:29;14.88;;;7.95;;
31652;SDS011;18261;53.648;9.910;2022-10-16T00:31:55;13.60;;;7.85;;
31652;SDS011;18261;53.648;9.910;2022-10-16T00:34:21;18.38;;;7.13;;
31652;SDS011;18261;53.648;9.910;2022-10-16T00:36:47;14.20;;;6.88;;
31652;SDS011;18261;53.648;9.910;2022-10-16T00:39:13;17.05;;;7.47;;
31652;SDS011;18261;53.648;9.910;2022-10-16T00:41:39;13.40;;;6.20;;
31652;SDS011;18261;53.648;9.910;2022-10-16T00:44:42;12.13;;;5.38;;
31652;SDS011;18261;53.648;9.910;2022-10-16T00:46:55;13.23;;;5.55;;
31652;SDS011;18261;53.648;9.910;2022-10-16T00:49:21;13.35;;;5.63;;
31652;SDS011;18261;53.648;9.910;2022-10-16T00:51:48;14.95;;;4.80;;
31652;SDS011;18261;53.648;9.910;2022-10-16T00:54:25;12.50;;;4.85;;
31652;SDS011;18261;53.648;9.910;2022-10-16T00:56:52;10.35;;;4.53;;
31652;SDS011;18261;53.648;9.910;2022-10-16T00:59:20;12.10;;;4.43;;
31652;SDS011;18261;53.648;9.910;2022-10-16T01:01:49;9.15;;;4.28;;
31652;SDS011;18261;53.648;9.910;2022-10-16T01:04:15;11.40;;;5.10;;
31652;SDS011;18261;53.648;9.910;2022-10-16T01:06:43;10.25;;;4.72;;
31652;SDS011;18261;53.648;9.910;2022-10-16T01:09:13;16.38;;;4.60;;
31652;SDS011;18261;53.648;9.910;2022-10-16T01:14:23;13.73;;;4.60;;
31652;SDS011;18261;53.648;9.910;2022-10-16T01:16:54;10.65;;;3.88;;
31652;SDS011;18261;53.648;9.910;2022-10-16T01:22:07;12.55;;;4.50;;
31652;SDS011;18261;53.648;9.910;2022-10-16T01:24:38;15.35;;;3.88;;
31652;SDS011;18261;53.648;9.910;2022-10-16T01:27:19;10.18;;;3.90;;
31652;SDS011;18261;53.648;9.910;2022-10-16T01:32:28;11.18;;;3.65;;
31652;SDS011;18261;53.648;9.910;2022-10-16T01:35:02;9.02;;;3.55;;
31652;SDS011;18261;53.648;9.910;2022-10-16T01:37:32;12.57;;;4.30;;
31652;SDS011;18261;53.648;9.910;2022-10-16T01:39:59;8.00;;;3.53;;
31652;SDS011;18261;53.648;9.910;2022-10-16T01:42:28;9.70;;;3.78;;
31652;SDS011;18261;53.648;9.910;2022-10-16T01:44:56;7.38;;;3.58;;
31652;SDS011;18261;53.648;9.910;2022-10-16T01:47:23;9.73;;;3.72;;
31652;SDS011;18261;53.648;9.910;2022-10-16T01:49:50;9.48;;;3.00;;
31652;SDS011;18261;53.648;9.910;2022-10-16T01:52:17;9.73;;;3.28;;
31652;SDS011;18261;53.648;9.910;2022-10-16T01:54:45;12.38;;;3.08;;
31652;SDS011;18261;53.648;9.910;2022-10-16T01:57:12;12.73;;;3.15;;
31652;SDS011;18261;53.648;9.910;2022-10-16T01:59:41;12.13;;;2.97;;
31652;SDS011;18261;53.648;9.910;2022-10-16T02:02:08;7.28;;;2.80;;
31652;SDS011;18261;53.648;9.910;2022-10-16T02:04:39;16.80;;;3.47;;
31652;SDS011;18261;53.648;9.910;2022-10-16T02:07:06;14.25;;;3.67;;
31652;SDS011;18261;53.648;9.910;2022-10-16T02:09:32;8.32;;;2.70;;
31652;SDS011;18261;53.648;9.910;2022-10-16T02:11:59;8.13;;;3.00;;
31652;SDS011;18261;53.648;9.910;2022-10-16T02:14:27;13.32;;;2.88;;
31652;SDS011;18261;53.648;9.910;2022-10-16T02:16:53;11.43;;;3.17;;
31652;SDS011;18261;53.648;9.910;2022-10-16T02:19:19;11.52;;;2.53;;
31652;SDS011;18261;53.648;9.910;2022-10-16T02:21:50;10.63;;;3.15;;
31652;SDS011;18261;53.648;9.910;2022-10-16T02:24:38;8.30;;;2.40;;
31652;SDS011;18261;53.648;9.910;2022-10-16T02:27:05;11.80;;;3.08;;
31652;SDS011;18261;53.648;9.910;2022-10-16T02:29:33;20.10;;;3.70;;
31652;SDS011;18261;53.648;9.910;2022-10-16T02:32:03;10.15;;;2.97;;
31652;SDS011;18261;53.648;9.910;2022-10-16T02:34:30;11.00;;;2.78;;
31652;SDS011;18261;53.648;9.910;2022-10-16T02:36:57;14.98;;;2.70;;
31652;SDS011;18261;53.648;9.910;2022-10-16T02:39:24;9.35;;;2.95;;
31652;SDS011;18261;53.648;9.910;2022-10-16T02:41:51;9.55;;;2.50;;
31652;SDS011;18261;53.648;9.910;2022-10-16T02:44:17;5.97;;;2.50;;
31652;SDS011;18261;53.648;9.910;2022-10-16T02:46:43;12.38;;;2.70;;
31652;SDS011;18261;53.648;9.910;2022-10-16T02:49:09;10.48;;;2.92;;
31652;SDS011;18261;53.648;9.910;2022-10-16T02:51:35;10.95;;;2.58;;
31652;SDS011;18261;53.648;9.910;2022-10-16T02:54:01;7.50;;;2.33;;
31652;SDS011;18261;53.648;9.910;2022-10-16T02:56:27;11.63;;;2.97;;
31652;SDS011;18261;53.648;9.910;2022-10-16T02:58:54;8.90;;;2.50;;
31652;SDS011;18261;53.648;9.910;2022-10-16T03:01:20;7.95;;;2.15;;
31652;SDS011;18261;53.648;9.910;2022-10-16T03:03:47;8.77;;;2.50;;
31652;SDS011;18261;53.648;9.910;2022-10-16T03:06:12;10.20;;;2.88;;
31652;SDS011;18261;53.648;9.910;2022-10-16T03:08:38;11.15;;;2.25;;
31652;SDS011;18261;53.648;9.910;2022-10-16T03:11:04;9.38;;;2.40;;
31652;SDS011;18261;53.648;9.910;2022-10-16T03:13:30;10.43;;;2.80;;
31652;SDS011;18261;53.648;9.910;2022-10-16T03:15:56;8.63;;;2.58;;
31652;SDS011;18261;53.648;9.910;2022-10-16T03:18:22;9.20;;;2.55;;
31652;SDS011;18261;53.648;9.910;2022-10-16T03:20:48;11.32;;;3.03;;
31652;SDS011;18261;53.648;9.910;2022-10-16T03:23:14;11.20;;;2.53;;
31652;SDS011;18261;53.648;9.910;2022-10-16T03:25:40;11.10;;;2.60;;
31652;SDS011;18261;53.648;9.910;2022-10-16T03:28:06;12.25;;;2.53;;
31652;SDS011;18261;53.648;9.910;2022-10-16T03:30:32;10.60;;;2.25;;
31652;SDS011;18261;53.648;9.910;2022-10-16T03:32:58;6.00;;;2.20;;
31652;SDS011;18261;53.648;9.910;2022-10-16T03:35:24;6.30;;;1.95;;
31652;SDS011;18261;53.648;9.910;2022-10-16T03:37:50;6.93;;;2.15;;
31652;SDS011;18261;53.648;9.910;2022-10-16T03:40:17;18.05;;;2.30;;
31652;SDS011;18261;53.648;9.910;2022-10-16T03:42:43;9.90;;;2.67;;
31652;SDS011;18261;53.648;9.910;2022-10-16T03:45:09;11.13;;;2.20;;
31652;SDS011;18261;53.648;9.910;2022-10-16T03:47:35;5.25;;;2.38;;
31652;SDS011;18261;53.648;9.910;2022-10-16T03:50:01;8.30;;;2.53;;
31652;SDS011;18261;53.648;9.910;2022-10-16T03:52:27;10.95;;;2.55;;
31652;SDS011;18261;53.648;9.910;2022-10-16T03:54:53;11.70;;;2.22;;
31652;SDS011;18261;53.648;9.910;2022-10-16T03:57:19;5.15;;;2.10;;
31652;SDS011;18261;53.648;9.910;2022-10-16T03:59:45;14.50;;;2.40;;
31652;SDS011;18261;53.648;9.910;2022-10-16T04:02:11;10.07;;;2.40;;
31652;SDS011;18261;53.648;9.910;2022-10-16T04:04:37;7.95;;;2.60;;
31652;SDS011;18261;53.648;9.910;2022-10-16T04:07:03;9.07;;;2.33;;
31652;SDS011;18261;53.648;9.910;2022-10-16T04:09:29;9.90;;;2.53;;
31652;SDS011;18261;53.648;9.910;2022-10-16T04:11:55;7.03;;;1.83;;
31652;SDS011;18261;53.648;9.910;2022-10-16T04:14:21;11.65;;;2.92;;
31652;SDS011;18261;53.648;9.910;2022-10-16T04:16:47;11.70;;;2.05;;
31652;SDS011;18261;53.648;9.910;2022-10-16T04:19:13;8.23;;;2.38;;
31652;SDS011;18261;53.648;9.910;2022-10-16T04:21:39;18.70;;;2.15;;
31652;SDS011;18261;53.648;9.910;2022-10-16T04:24:05;16.90;;;2.55;;
31652;SDS011;18261;53.648;9.910;2022-10-16T04:26:31;7.95;;;2.30;;
31652;SDS011;18261;53.648;9.910;2022-10-16T04:28:57;5.28;;;2.17;;
31652;SDS011;18261;53.648;9.910;2022-10-16T04:31:23;7.85;;;1.90;;
31652;SDS011;18261;53.648;9.910;2022-10-16T04:33:49;11.95;;;2.40;;
31652;SDS011;18261;53.648;9.910;2022-10-16T04:36:15;8.73;;;2.58;;
31652;SDS011;18261;53.648;9.910;2022-10-16T04:38:41;7.20;;;2.47;;
31652;SDS011;18261;53.648;9.910;2022-10-16T04:41:07;9.90;;;2.88;;
31652;SDS011;18261;53.648;9.910;2022-10-16T04:43:33;16.75;;;2.90;;
31652;SDS011;18261;53.648;9.910;2022-10-16T04:45:59;11.75;;;2.60;;
31652;SDS011;18261;53.648;9.910;2022-10-16T04:48:25;7.22;;;2.47;;
31652;SDS011;18261;53.648;9.910;2022-10-16T04:50:51;10.20;;;2.20;;
31652;SDS011;18261;53.648;9.910;2022-10-16T04:53:17;10.48;;;2.88;;
31652;SDS011;18261;53.648;9.910;2022-10-16T04:55:43;14.43;;;2.38;;
31652;SDS011;18261;53.648;9.910;2022-10-16T04:58:09;6.95;;;2.15;;
31652;SDS011;18261;53.648;9.910;2022-10-16T05:00:35;10.30;;;2.65;;
31652;SDS011;18261;53.648;9.910;2022-10-16T05:03:01;11.15;;;2.75;;
31652;SDS011;18261;53.648;9.910;2022-10-16T05:05:30;6.68;;;2.47;;
31652;SDS011;18261;53.648;9.910;2022-10-16T05:07:56;9.80;;;3.03;;
31652;SDS011;18261;53.648;9.910;2022-10-16T05:10:22;9.73;;;4.10;;
31652;SDS011;18261;53.648;9.910;2022-10-16T05:12:48;8.63;;;3.30;;
31652;SDS011;18261;53.648;9.910;2022-10-16T05:15:16;9.48;;;3.50;;
31652;SDS011;18261;53.648;9.910;2022-10-16T05:17:42;8.95;;;2.85;;
31652;SDS011;18261;53.648;9.910;2022-10-16T05:20:08;11.13;;;3.88;;
31652;SDS011;18261;53.648;9.910;2022-10-16T05:22:33;15.23;;;3.92;;
31652;SDS011;18261;53.648;9.910;2022-10-16T05:24:59;15.63;;;3.63;;
31652;SDS011;18261;53.648;9.910;2022-10-16T05:27:25;9.10;;;3.90;;
31652;SDS011;18261;53.648;9.910;2022-10-16T05:29:51;10.07;;;4.00;;
31652;SDS011;18261;53.648;9.910;2022-10-16T05:32:18;12.32;;;3.47;;
31652;SDS011;18261;53.648;9.910;2022-10-16T05:34:44;12.38;;;4.10;;
31652;SDS011;18261;53.648;9.910;2022-10-16T05:37:10;11.27;;;3.67;;
31652;SDS011;18261;53.648;9.910;2022-10-16T05:39:37;10.85;;;3.50;;
31652;SDS011;18261;53.648;9.910;2022-10-16T05:42:03;10.65;;;3.80;;
31652;SDS011;18261;53.648;9.910;2022-10-16T05:44:29;15.77;;;4.00;;
31652;SDS011;18261;53.648;9.910;2022-10-16T05:46:55;10.23;;;4.15;;
31652;SDS011;18261;53.648;9.910;2022-10-16T05:49:21;12.18;;;4.47;;
31652;SDS011;18261;53.648;9.910;2022-10-16T05:51:47;16.20;;;4.15;;
31652;SDS011;18261;53.648;9.910;2022-10-16T05:54:13;10.63;;;4.07;;
31652;SDS011;18261;53.648;9.910;2022-10-16T05:56:39;13.75;;;4.40;;
31652;SDS011;18261;53.648;9.910;2022-10-16T05:59:05;11.57;;;4.30;;
31652;SDS011;18261;53.648;9.910;2022-10-16T06:01:31;12.60;;;4.63;;
31652;SDS011;18261;53.648;9.910;2022-10-16T06:03:57;12.88;;;4.35;;
31652;SDS011;18261;53.648;9.910;2022-10-16T06:06:24;13.63;;;4.18;;
31652;SDS011;18261;53.648;9.910;2022-10-16T06:08:51;18.25;;;4.68;;
31652;SDS011;18261;53.648;9.910;2022-10-16T06:11:18;13.27;;;4.13;;
31652;SDS011;18261;53.648;9.910;2022-10-16T06:13:44;11.13;;;4.38;;
31652;SDS011;18261;53.648;9.910;2022-10-16T06:16:11;14.88;;;4.47;;
31652;SDS011;18261;53.648;9.910;2022-10-16T06:18:37;13.40;;;4.85;;
31652;SDS011;18261;53.648;9.910;2022-10-16T06:21:07;13.32;;;4.10;;
31652;SDS011;18261;53.648;9.910;2022-10-16T06:23:33;14.63;;;4.25;;
31652;SDS011;18261;53.648;9.910;2022-10-16T06:26:09;20.92;;;4.60;;
31652;SDS011;18261;53.648;9.910;2022-10-16T06:28:35;13.38;;;4.40;;
31652;SDS011;18261;53.648;9.910;2022-10-16T06:31:02;15.80;;;3.80;;
31652;SDS011;18261;53.648;9.910;2022-10-16T06:33:28;14.85;;;4.13;;
31652;SDS011;18261;53.648;9.910;2022-10-16T06:35:59;20.05;;;4.88;;
31652;SDS011;18261;53.648;9.910;2022-10-16T06:38:25;10.85;;;3.88;;
31652;SDS011;18261;53.648;9.910;2022-10-16T06:40:53;12.40;;;4.22;;
31652;SDS011;18261;53.648;9.910;2022-10-16T06:43:19;12.85;;;4.10;;
31652;SDS011;18261;53.648;9.910;2022-10-16T06:45:52;8.90;;;3.63;;
31652;SDS011;18261;53.648;9.910;2022-10-16T06:48:18;13.07;;;4.10;;
31652;SDS011;18261;53.648;9.910;2022-10-16T06:50:44;14.40;;;4.15;;
31652;SDS011;18261;53.648;9.910;2022-10-16T06:53:10;17.80;;;4.35;;
31652;SDS011;18261;53.648;9.910;2022-10-16T06:55:36;9.40;;;4.25;;
31652;SDS011;18261;53.648;9.910;2022-10-16T06:58:01;13.32;;;4.00;;
31652;SDS011;18261;53.648;9.910;2022-10-16T07:00:27;11.07;;;4.13;;
31652;SDS011;18261;53.648;9.910;2022-10-16T07:02:53;13.07;;;4.28;;
31652;SDS011;18261;53.648;9.910;2022-10-16T07:05:19;12.35;;;4.85;;
31652;SDS011;18261;53.648;9.910;2022-10-16T07:07:45;14.40;;;4.53;;
31652;SDS011;18261;53.648;9.910;2022-10-16T07:10:11;12.57;;;4.22;;
31652;SDS011;18261;53.648;9.910;2022-10-16T07:12:37;18.98;;;4.50;;
31652;SDS011;18261;53.648;9.910;2022-10-16T07:15:03;13.07;;;4.40;;
31652;SDS011;18261;53.648;9.910;2022-10-16T07:17:29;10.77;;;5.03;;
31652;SDS011;18261;53.648;9.910;2022-10-16T07:19:55;16.50;;;5.53;;
31652;SDS011;18261;53.648;9.910;2022-10-16T07:22:21;16.10;;;4.57;;
31652;SDS011;18261;53.648;9.910;2022-10-16T07:24:47;11.63;;;4.82;;
31652;SDS011;18261;53.648;9.910;2022-10-16T07:27:13;15.50;;;5.25;;
31652;SDS011;18261;53.648;9.910;2022-10-16T07:29:40;15.38;;;4.95;;
31652;SDS011;18261;53.648;9.910;2022-10-16T07:32:06;18.77;;;5.22;;
31652;SDS011;18261;53.648;9.910;2022-10-16T07:34:32;20.33;;;4.80;;
31652;SDS011;18261;53.648;9.910;2022-10-16T07:36:58;13.52;;;4.32;;
31652;SDS011;18261;53.648;9.910;2022-10-16T07:39:24;11.38;;;4.07;;
31652;SDS011;18261;53.648;9.910;2022-10-16T07:41:50;15.27;;;5.55;;
31652;SDS011;18261;53.648;9.910;2022-10-16T07:44:16;12.02;;;4.50;;
31652;SDS011;18261;53.648;9.910;2022-10-16T07:46:42;10.48;;;4.93;;
31652;SDS011;18261;53.648;9.910;2022-10-16T07:49:08;10.50;;;5.13;;
31652;SDS011;18261;53.648;9.910;2022-10-16T07:51:34;15.25;;;4.50;;
31652;SDS011;18261;53.648;9.910;2022-10-16T07:54:00;12.73;;;4.75;;
31652;SDS011;18261;53.648;9.910;2022-10-16T07:56:26;14.52;;;4.90;;
31652;SDS011;18261;53.648;9.910;2022-10-16T07:58:52;13.50;;;5.10;;
31652;SDS011;18261;53.648;9.910;2022-10-16T08:01:18;13.50;;;4.72;;
31652;SDS011;18261;53.648;9.910;2022-10-16T08:03:45;9.50;;;4.70;;
31652;SDS011;18261;53.648;9.910;2022-10-16T08:06:12;11.20;;;4.68;;
31652;SDS011;18261;53.648;9.910;2022-10-16T08:08:38;14.88;;;5.03;;
31652;SDS011;18261;53.648;9.910;2022-10-16T08:11:04;10.20;;;4.63;;
31652;SDS011;18261;53.648;9.910;2022-10-16T08:13:30;12.32;;;5.43;;
31652;SDS011;18261;53.648;9.910;2022-10-16T08:15:56;11.82;;;4.68;;
31652;SDS011;18261;53.648;9.910;2022-10-16T08:18:22;14.32;;;4.57;;
31652;SDS011;18261;53.648;9.910;2022-10-16T08:20:54;10.45;;;4.50;;
31652;SDS011;18261;53.648;9.910;2022-10-16T08:23:20;13.02;;;4.70;;
31652;SDS011;18261;53.648;9.910;2022-10-16T08:25:46;6.85;;;4.13;;
31652;SDS011;18261;53.648;9.910;2022-10-16T08:28:12;13.20;;;5.10;;
31652;SDS011;18261;53.648;9.910;2022-10-16T08:30:38;10.52;;;3.50;;
31652;SDS011;18261;53.648;9.910;2022-10-16T08:33:04;10.30;;;3.67;;
31652;SDS011;18261;53.648;9.910;2022-10-16T08:35:31;10.88;;;3.40;;
31652;SDS011;18261;53.648;9.910;2022-10-16T08:37:57;11.15;;;3.70;;
31652;SDS011;18261;53.648;9.910;2022-10-16T08:40:27;13.65;;;6.90;;
31652;SDS011;18261;53.648;9.910;2022-10-16T08:53:38;7.57;;;2.95;;
31652;SDS011;18261;53.648;9.910;2022-10-16T08:56:06;9.02;;;3.42;;
31652;SDS011;18261;53.648;9.910;2022-10-16T08:58:32;8.45;;;2.90;;
31652;SDS011;18261;53.648;9.910;2022-10-16T09:00:59;7.88;;;3.20;;
31652;SDS011;18261;53.648;9.910;2022-10-16T09:11:08;6.97;;;2.90;;
31652;SDS011;18261;53.648;9.910;2022-10-16T09:13:55;6.45;;;2.55;;
31652;SDS011;18261;53.648;9.910;2022-10-16T09:16:24;9.43;;;2.75;;
31652;SDS011;18261;53.648;9.910;2022-10-16T09:18:54;9.02;;;2.72;;
31652;SDS011;18261;53.648;9.910;2022-10-16T09:21:23;8.98;;;2.58;;
31652;SDS011;18261;53.648;9.910;2022-10-16T09:23:50;7.75;;;2.80;;
31652;SDS011;18261;53.648;9.910;2022-10-16T09:26:16;6.75;;;2.20;;
31652;SDS011;18261;53.648;9.910;2022-10-16T09:28:44;12.52;;;2.78;;
31652;SDS011;18261;53.648;9.910;2022-10-16T09:31:18;12.13;;;2.17;;
31652;SDS011;18261;53.648;9.910;2022-10-16T09:33:45;5.88;;;1.92;;
31652;SDS011;18261;53.648;9.910;2022-10-16T09:36:13;6.95;;;2.40;;
31652;SDS011;18261;53.648;9.910;2022-10-16T09:38:39;13.43;;;2.33;;
31652;SDS011;18261;53.648;9.910;2022-10-16T09:41:19;8.38;;;2.40;;
31652;SDS011;18261;53.648;9.910;2022-10-16T09:48:56;9.00;;;2.10;;
31652;SDS011;18261;53.648;9.910;2022-10-16T09:51:24;9.40;;;2.20;;
31652;SDS011;18261;53.648;9.910;2022-10-16T09:53:54;9.63;;;2.70;;
31652;SDS011;18261;53.648;9.910;2022-10-16T09:56:21;8.98;;;2.47;;
31652;SDS011;18261;53.648;9.910;2022-10-16T09:58:52;11.10;;;2.60;;
31652;SDS011;18261;53.648;9.910;2022-10-16T10:01:18;10.75;;;2.10;;
31652;SDS011;18261;53.648;9.910;2022-10-16T10:03:44;7.85;;;1.83;;
31652;SDS011;18261;53.648;9.910;2022-10-16T10:08:56;9.07;;;2.05;;
31652;SDS011;18261;53.648;9.910;2022-10-16T10:16:46;9.25;;;2.30;;
31652;SDS011;18261;53.648;9.910;2022-10-16T10:19:22;8.35;;;1.70;;
31652;SDS011;18261;53.648;9.910;2022-10-16T10:21:49;10.32;;;2.13;;
31652;SDS011;18261;53.648;9.910;2022-10-16T10:24:17;13.93;;;2.00;;
31652;SDS011;18261;53.648;9.910;2022-10-16T10:26:48;9.18;;;1.70;;
31652;SDS011;18261;53.648;9.910;2022-10-16T10:29:33;6.85;;;1.73;;
31652;SDS011;18261;53.648;9.910;2022-10-16T10:32:06;6.07;;;1.70;;
31652;SDS011;18261;53.648;9.910;2022-10-16T10:34:41;8.02;;;2.00;;
31652;SDS011;18261;53.648;9.910;2022-10-16T10:40:15;6.72;;;1.63;;
31652;SDS011;18261;53.648;9.910;2022-10-16T10:42:51;8.48;;;1.80;;
31652;SDS011;18261;53.648;9.910;2022-10-16T10:45:26;5.68;;;1.90;;
31652;SDS011;18261;53.648;9.910;2022-10-16T10:55:40;10.60;;;2.20;;
31652;SDS011;18261;53.648;9.910;2022-10-16T11:05:46;9.98;;;1.80;;
31652;SDS011;18261;53.648;9.910;2022-10-16T11:15:57;6.13;;;1.52;;
31652;SDS011;18261;53.648;9.910;2022-10-16T11:20:57;5.72;;;1.40;;
31652;SDS011;18261;53.648;9.910;2022-10-16T11:23:29;11.20;;;1.88;;
31652;SDS011;18261;53.648;9.910;2022-10-16T11:25:58;6.72;;;1.70;;
31652;SDS011;18261;53.648;9.910;2022-10-16T11:28:39;10.43;;;1.50;;
31652;SDS011;18261;53.648;9.910;2022-10-16T11:31:10;8.93;;;1.67;;
31652;SDS011;18261;53.648;9.910;2022-10-16T11:38:58;6.88;;;1.70;;
31652;SDS011;18261;53.648;9.910;2022-10-16T11:41:35;6.05;;;1.55;;
31652;SDS011;18261;53.648;9.910;2022-10-16T11:46:52;4.65;;;1.27;;
31652;SDS011;18261;53.648;9.910;2022-10-16T11:49:24;7.15;;;1.40;;
31652;SDS011;18261;53.648;9.910;2022-10-16T11:52:05;10.45;;;1.60;;
31652;SDS011;18261;53.648;9.910;2022-10-16T11:54:33;6.22;;;1.77;;
31652;SDS011;18261;53.648;9.910;2022-10-16T11:57:02;6.15;;;1.50;;
31652;SDS011;18261;53.648;9.910;2022-10-16T11:59:38;11.35;;;1.65;;
31652;SDS011;18261;53.648;9.910;2022-10-16T12:02:23;9.88;;;1.60;;
31652;SDS011;18261;53.648;9.910;2022-10-16T12:04:56;7.65;;;1.45;;
31652;SDS011;18261;53.648;9.910;2022-10-16T12:07:27;6.75;;;1.70;;
31652;SDS011;18261;53.648;9.910;2022-10-16T12:09:57;6.65;;;1.30;;
31652;SDS011;18261;53.648;9.910;2022-10-16T12:15:01;9.48;;;1.65;;
31652;SDS011;18261;53.648;9.910;2022-10-16T12:17:34;5.47;;;1.50;;
31652;SDS011;18261;53.648;9.910;2022-10-16T12:20:53;9.55;;;1.52;;
31652;SDS011;18261;53.648;9.910;2022-10-16T12:22:54;6.88;;;1.27;;
31652;SDS011;18261;53.648;9.910;2022-10-16T12:25:22;9.68;;;1.73;;
31652;SDS011;18261;53.648;9.910;2022-10-16T12:27:55;7.00;;;1.85;;
31652;SDS011;18261;53.648;9.910;2022-10-16T12:30:22;9.68;;;1.85;;
31652;SDS011;18261;53.648;9.910;2022-10-16T12:32:56;5.68;;;1.60;;
31652;SDS011;18261;53.648;9.910;2022-10-16T12:35:27;7.70;;;1.80;;
31652;SDS011;18261;53.648;9.910;2022-10-16T12:37:54;9.25;;;1.75;;
31652;SDS011;18261;53.648;9.910;2022-10-16T12:40:32;7.85;;;1.88;;
31652;SDS011;18261;53.648;9.910;2022-10-16T12:42:58;12.13;;;1.83;;
31652;SDS011;18261;53.648;9.910;2022-10-16T12:45:29;13.38;;;2.25;;
31652;SDS011;18261;53.648;9.910;2022-10-16T12:47:56;11.93;;;1.40;;
31652;SDS011;18261;53.648;9.910;2022-10-16T12:50:23;6.90;;;1.65;;
31652;SDS011;18261;53.648;9.910;2022-10-16T12:52:49;9.48;;;1.52;;
31652;SDS011;18261;53.648;9.910;2022-10-16T12:55:16;10.98;;;1.83;;
31652;SDS011;18261;53.648;9.910;2022-10-16T13:03:22;13.88;;;1.90;;
31652;SDS011;18261;53.648;9.910;2022-10-16T13:13:41;6.45;;;1.67;;
31652;SDS011;18261;53.648;9.910;2022-10-16T13:16:19;12.40;;;1.98;;
31652;SDS011;18261;53.648;9.910;2022-10-16T13:18:59;12.95;;;2.00;;
31652;SDS011;18261;53.648;9.910;2022-10-16T13:29:08;9.43;;;2.15;;
31652;SDS011;18261;53.648;9.910;2022-10-16T13:31:36;9.40;;;2.35;;
31652;SDS011;18261;53.648;9.910;2022-10-16T13:34:03;11.07;;;2.00;;
31652;SDS011;18261;53.648;9.910;2022-10-16T13:36:35;8.07;;;2.03;;
31652;SDS011;18261;53.648;9.910;2022-10-16T13:41:30;7.40;;;2.03;;
31652;SDS011;18261;53.648;9.910;2022-10-16T13:43:56;8.68;;;1.80;;
31652;SDS011;18261;53.648;9.910;2022-10-16T13:46:23;11.05;;;1.98;;
31652;SDS011;18261;53.648;9.910;2022-10-16T13:48:59;9.20;;;2.00;;
31652;SDS011;18261;53.648;9.910;2022-10-16T13:51:25;10.27;;;2.10;;
31652;SDS011;18261;53.648;9.910;2022-10-16T13:53:51;9.40;;;2.30;;
31652;SDS011;18261;53.648;9.910;2022-10-16T13:56:19;8.85;;;1.83;;
31652;SDS011;18261;53.648;9.910;2022-10-16T13:58:46;11.15;;;1.70;;
31652;SDS011;18261;53.648;9.910;2022-10-16T14:01:16;8.85;;;2.50;;
31652;SDS011;18261;53.648;9.910;2022-10-16T14:03:43;10.38;;;1.95;;
31652;SDS011;18261;53.648;9.910;2022-10-16T14:06:14;7.05;;;1.77;;
31652;SDS011;18261;53.648;9.910;2022-10-16T14:08:49;8.60;;;1.63;;
31652;SDS011;18261;53.648;9.910;2022-10-16T14:11:20;7.13;;;1.73;;
31652;SDS011;18261;53.648;9.910;2022-10-16T14:13:47;10.57;;;2.75;;
31652;SDS011;18261;53.648;9.910;2022-10-16T14:16:31;8.32;;;2.15;;
31652;SDS011;18261;53.648;9.910;2022-10-16T14:19:03;8.95;;;2.15;;
31652;SDS011;18261;53.648;9.910;2022-10-16T14:21:31;11.98;;;2.47;;
31652;SDS011;18261;53.648;9.910;2022-10-16T14:23:58;5.88;;;2.05;;
31652;SDS011;18261;53.648;9.910;2022-10-16T14:26:25;10.82;;;1.65;;
31652;SDS011;18261;53.648;9.910;2022-10-16T14:29:08;7.90;;;2.17;;
31652;SDS011;18261;53.648;9.910;2022-10-16T14:31:35;8.55;;;2.22;;
31652;SDS011;18261;53.648;9.910;2022-10-16T14:34:02;10.68;;;2.20;;
31652;SDS011;18261;53.648;9.910;2022-10-16T14:36:29;10.65;;;2.67;;
31652;SDS011;18261;53.648;9.910;2022-10-16T14:39:00;6.57;;;2.45;;
31652;SDS011;18261;53.648;9.910;2022-10-16T14:41:27;10.90;;;2.28;;
31652;SDS011;18261;53.648;9.910;2022-10-16T14:43:54;7.60;;;2.50;;
31652;SDS011;18261;53.648;9.910;2022-10-16T14:46:21;5.85;;;1.95;;
31652;SDS011;18261;53.648;9.910;2022-10-16T14:48:51;8.48;;;2.13;;
31652;SDS011;18261;53.648;9.910;2022-10-16T14:51:19;5.40;;;1.42;;
31652;SDS011;18261;53.648;9.910;2022-10-16T14:53:45;7.40;;;1.48;;
31652;SDS011;18261;53.648;9.910;2022-10-16T14:56:24;11.65;;;2.05;;
31652;SDS011;18261;53.648;9.910;2022-10-16T14:58:51;9.15;;;1.75;;
31652;SDS011;18261;53.648;9.910;2022-10-16T15:01:17;11.02;;;2.00;;
31652;SDS011;18261;53.648;9.910;2022-10-16T15:03:43;11.55;;;1.67;;
31652;SDS011;18261;53.648;9.910;2022-10-16T15:06:13;10.30;;;2.00;;
31652;SDS011;18261;53.648;9.910;2022-10-16T15:08:40;10.85;;;2.25;;
31652;SDS011;18261;53.648;9.910;2022-10-16T15:11:12;10.32;;;1.90;;
31652;SDS011;18261;53.648;9.910;2022-10-16T15:13:39;10.50;;;1.92;;
31652;SDS011;18261;53.648;9.910;2022-10-16T15:16:07;9.00;;;1.80;;
31652;SDS011;18261;53.648;9.910;2022-10-16T15:18:33;12.52;;;2.17;;
31652;SDS011;18261;53.648;9.910;2022-10-16T15:20:59;17.23;;;2.40;;
31652;SDS011;18261;53.648;9.910;2022-10-16T15:23:25;6.90;;;1.55;;
31652;SDS011;18261;53.648;9.910;2022-10-16T15:25:52;13.85;;;2.50;;
31652;SDS011;18261;53.648;9.910;2022-10-16T15:28:18;13.07;;;2.45;;
31652;SDS011;18261;53.648;9.910;2022-10-16T15:30:45;16.50;;;2.25;;
31652;SDS011;18261;53.648;9.910;2022-10-16T15:33:15;15.95;;;2.42;;
31652;SDS011;18261;53.648;9.910;2022-10-16T15:35:41;10.45;;;2.00;;
31652;SDS011;18261;53.648;9.910;2022-10-16T15:38:11;11.75;;;1.92;;
31652;SDS011;18261;53.648;9.910;2022-10-16T15:40:37;7.93;;;1.85;;
31652;SDS011;18261;53.648;9.910;2022-10-16T15:43:03;18.45;;;2.15;;
31652;SDS011;18261;53.648;9.910;2022-10-16T15:45:29;10.20;;;2.40;;
31652;SDS011;18261;53.648;9.910;2022-10-16T15:47:55;13.30;;;2.58;;
31652;SDS011;18261;53.648;9.910;2022-10-16T15:50:21;13.75;;;2.75;;
31652;SDS011;18261;53.648;9.910;2022-10-16T15:52:47;15.40;;;2.22;;
31652;SDS011;18261;53.648;9.910;2022-10-16T15:55:13;11.23;;;2.20;;
31652;SDS011;18261;53.648;9.910;2022-10-16T15:57:39;7.75;;;2.55;;
31652;SDS011;18261;53.648;9.910;2022-10-16T16:00:08;14.35;;;2.10;;
31652;SDS011;18261;53.648;9.910;2022-10-16T16:02:36;10.07;;;2.08;;
31652;SDS011;18261;53.648;9.910;2022-10-16T16:05:02;11.98;;;2.55;;
31652;SDS011;18261;53.648;9.910;2022-10-16T16:07:28;20.02;;;2.47;;
31652;SDS011;18261;53.648;9.910;2022-10-16T16:09:54;10.23;;;2.55;;
31652;SDS011;18261;53.648;9.910;2022-10-16T16:12:20;18.25;;;3.50;;
31652;SDS011;18261;53.648;9.910;2022-10-16T16:14:47;14.05;;;2.53;;
31652;SDS011;18261;53.648;9.910;2022-10-16T16:17:14;12.43;;;2.60;;
31652;SDS011;18261;53.648;9.910;2022-10-16T16:19:39;12.80;;;3.00;;
31652;SDS011;18261;53.648;9.910;2022-10-16T16:22:05;15.95;;;4.15;;
31652;SDS011;18261;53.648;9.910;2022-10-16T16:24:31;13.13;;;3.03;;